Time;durP1;ratioP1;P1;durP2;ratioP2;P2;SDS_P1;SDS_P2;PMS_P1;PMS_P2;Temp;Humidity;BMP_temperature;BMP_pressure;BME280_temperature;BME280_humidity;BME280_pressure;Samples;Min_cycle;Max_cycle;Signal;HPM_P1;HPM_P2
2022/04/15 00:00:27;;;;;;;5.27;3.50;;;18.90;41.80;;;;;;5055242;28;20305;-57
2022/04/15 00:02:52;;;;;;;3.50;3.20;;;18.90;41.80;;;;;;5060582;28;20470;-56
2022/04/15 00:05:37;;;;;;;5.23;3.00;;;18.90;41.80;;;;;;5059403;28;20953;-56
2022/04/15 00:08:07;;;;;;;4.53;4.03;;;18.90;41.70;;;;;;5056504;28;20264;-56
2022/04/15 00:10:34;;;;;;;4.57;4.07;;;18.90;41.70;;;;;;5064103;28;20539;-55
2022/04/15 00:13:00;;;;;;;3.70;3.50;;;18.90;41.70;;;;;;5060201;28;20482;-56
2022/04/15 00:15:27;;;;;;;4.23;3.40;;;18.90;41.70;;;;;;5062346;28;20990;-56
2022/04/15 00:17:54;;;;;;;4.93;3.97;;;18.90;41.60;;;;;;5066857;28;20959;-56
2022/04/15 00:20:20;;;;;;;3.40;3.20;;;18.90;41.50;;;;;;5061219;28;20926;-56
2022/04/15 00:22:46;;;;;;;3.83;3.60;;;18.90;41.50;;;;;;5061839;28;20438;-56
2022/04/15 00:25:12;;;;;;;3.60;3.40;;;18.90;41.50;;;;;;5066397;28;20455;-55
2022/04/15 00:27:39;;;;;;;4.70;4.30;;;18.90;41.40;;;;;;5057654;28;20414;-55
2022/04/15 00:30:06;;;;;;;4.20;3.90;;;18.90;41.30;;;;;;5064118;28;20230;-55
2022/04/15 00:32:32;;;;;;;3.73;3.50;;;18.90;41.40;;;;;;5063133;28;20437;-56
2022/04/15 00:34:57;;;;;;;3.83;3.63;;;18.90;41.30;;;;;;5063690;28;20450;-56
2022/04/15 00:37:23;;;;;;;4.73;3.40;;;18.90;41.20;;;;;;5031719;28;20328;-56
2022/04/15 00:39:49;;;;;;;4.13;3.83;;;18.90;41.20;;;;;;5064305;28;20518;-56
2022/04/15 00:42:15;;;;;;;3.67;3.30;;;18.90;41.20;;;;;;5044470;28;20233;-55
2022/04/15 00:44:40;;;;;;;4.13;3.93;;;18.90;41.20;;;;;;5062647;28;20442;-55
2022/04/15 00:47:24;;;;;;;3.70;3.50;;;18.90;41.20;;;;;;5062075;28;20225;-55
2022/04/15 00:49:50;;;;;;;3.77;3.57;;;18.90;41.10;;;;;;5065508;28;20238;-55
2022/04/15 00:52:20;;;;;;;4.20;3.80;;;18.90;41.10;;;;;;5060676;28;20452;-56
2022/04/15 00:54:49;;;;;;;4.43;4.00;;;18.90;41.00;;;;;;5062056;28;20230;-55
2022/04/15 00:57:21;;;;;;;3.93;3.73;;;18.90;41.00;;;;;;5062542;28;20803;-55
2022/04/15 00:59:47;;;;;;;3.70;3.50;;;18.90;41.00;;;;;;5057617;28;20454;-57
2022/04/15 01:02:17;;;;;;;3.70;3.50;;;18.90;41.70;;;;;;5066486;28;20433;-55
2022/04/15 01:04:44;;;;;;;3.97;3.63;;;18.90;40.90;;;;;;5058579;28;20302;-55
2022/04/15 01:07:14;;;;;;;3.77;3.57;;;18.90;40.90;;;;;;5062698;28;20537;-56
2022/04/15 01:09:43;;;;;;;7.93;3.43;;;18.90;40.80;;;;;;5062972;28;21261;-56
2022/04/15 01:12:10;;;;;;;4.03;3.77;;;18.90;40.80;;;;;;5060951;28;21380;-55
2022/04/15 01:14:39;;;;;;;3.10;3.00;;;18.90;40.80;;;;;;5060754;28;20460;-55
2022/04/15 01:17:05;;;;;;;4.30;4.00;;;18.90;40.70;;;;;;5059560;28;20449;-55
2022/04/15 01:19:30;;;;;;;3.57;3.37;;;18.90;41.50;;;;;;5064587;28;20462;-56
2022/04/15 01:22:01;;;;;;;4.10;3.90;;;18.90;40.70;;;;;;5058105;28;20300;-55
2022/04/15 01:24:29;;;;;;;3.77;3.57;;;18.80;40.50;;;;;;5061805;28;20222;-55
2022/04/15 01:26:54;;;;;;;3.83;3.53;;;18.90;40.60;;;;;;5063675;28;20799;-56
2022/04/15 01:29:20;;;;;;;4.17;3.93;;;18.90;40.60;;;;;;5060517;28;20994;-56
2022/04/15 01:31:45;;;;;;;4.20;4.00;;;18.90;40.50;;;;;;5063238;28;20576;-55
2022/04/15 01:34:11;;;;;;;4.03;3.83;;;18.90;40.50;;;;;;5062053;28;20320;-55
2022/04/15 01:36:36;;;;;;;4.20;3.80;;;18.80;40.40;;;;;;5057752;28;20710;-55
2022/04/15 01:39:02;;;;;;;3.47;3.27;;;18.90;40.40;;;;;;5063286;28;20827;-56
2022/04/15 01:41:27;;;;;;;4.43;4.13;;;18.90;40.40;;;;;;5060837;28;20665;-56
2022/04/15 01:43:53;;;;;;;4.03;3.73;;;18.90;40.30;;;;;;5056251;28;20678;-56
2022/04/15 01:46:19;;;;;;;3.97;3.70;;;18.90;41.10;;;;;;5063350;28;20325;-56
2022/04/15 01:48:44;;;;;;;4.73;4.43;;;18.90;40.30;;;;;;5066086;28;20585;-56
2022/04/15 01:51:10;;;;;;;4.07;3.87;;;18.90;40.20;;;;;;5056665;28;20697;-55
2022/04/15 01:53:35;;;;;;;4.67;4.37;;;18.90;40.20;;;;;;5056833;28;20321;-56
2022/04/15 01:56:01;;;;;;;4.40;4.00;;;18.80;40.10;;;;;;5063330;28;20222;-55
2022/04/15 01:58:26;;;;;;;4.23;4.00;;;18.80;40.10;;;;;;5057585;28;20234;-56
2022/04/15 02:00:52;;;;;;;4.80;4.50;;;18.90;40.10;;;;;;5058587;28;20234;-56
2022/04/15 02:03:18;;;;;;;3.83;3.63;;;18.80;40.00;;;;;;5061276;28;20273;-56
2022/04/15 02:05:43;;;;;;;4.60;4.30;;;18.90;40.00;;;;;;5062313;28;20300;-56
2022/04/15 02:08:09;;;;;;;4.30;4.10;;;18.80;39.90;;;;;;5062232;28;20702;-55
2022/04/15 02:10:34;;;;;;;5.70;4.57;;;18.80;39.80;;;;;;5063085;28;20562;-55
2022/04/15 02:13:00;;;;;;;4.77;4.47;;;18.80;39.80;;;;;;5057903;28;20215;-55
2022/04/15 02:15:25;;;;;;;4.23;4.00;;;18.80;39.80;;;;;;5060275;28;20285;-56
2022/04/15 02:17:51;;;;;;;4.00;3.70;;;18.80;39.70;;;;;;5061505;28;20291;-56
2022/04/15 02:20:16;;;;;;;4.47;4.17;;;18.80;39.70;;;;;;5056013;28;20234;-57
2022/04/15 02:22:42;;;;;;;3.90;3.70;;;18.80;39.60;;;;;;5062861;28;20225;-56
2022/04/15 02:25:08;;;;;;;4.90;4.50;;;18.80;39.60;;;;;;5062628;28;20218;-56
2022/04/15 02:27:34;;;;;;;4.80;4.50;;;18.80;39.60;;;;;;5057997;28;20241;-56
2022/04/15 02:29:59;;;;;;;4.27;4.07;;;18.80;40.30;;;;;;5059538;28;21062;-56
2022/04/15 02:32:25;;;;;;;4.17;3.97;;;18.80;39.50;;;;;;5059851;28;20691;-58
2022/04/15 02:34:51;;;;;;;3.90;3.70;;;18.80;39.50;;;;;;5057192;28;20221;-58
2022/04/15 02:37:17;;;;;;;2.63;2.33;;;18.80;39.40;;;;;;5057997;28;20474;-58
2022/04/15 02:39:42;;;;;;;2.37;2.27;;;18.80;39.60;;;;;;5060256;28;20312;-58
2022/04/15 02:42:09;;;;;;;2.17;2.07;;;18.80;40.00;;;;;;5060827;28;20232;-57
2022/04/15 02:44:37;;;;;;;2.20;2.10;;;18.80;40.30;;;;;;5059662;28;20225;-58
2022/04/15 02:47:03;;;;;;;2.00;1.90;;;18.80;40.70;;;;;;5063121;28;20806;-58
2022/04/15 02:49:29;;;;;;;2.07;1.90;;;18.80;41.00;;;;;;5058061;28;20437;-58
2022/04/15 02:51:56;;;;;;;2.20;2.00;;;18.80;41.30;;;;;;5058910;28;20942;-57
2022/04/15 02:54:22;;;;;;;2.17;2.07;;;18.70;41.50;;;;;;5061331;28;20463;-57
2022/04/15 02:56:47;;;;;;;2.13;2.03;;;18.70;41.70;;;;;;5055015;28;20581;-58
2022/04/15 02:59:13;;;;;;;2.03;1.93;;;18.70;42.00;;;;;;5060056;28;20520;-58
2022/04/15 03:01:38;;;;;;;1.97;1.87;;;18.70;42.10;;;;;;5059774;28;20227;-55
2022/04/15 03:04:04;;;;;;;1.80;1.70;;;18.70;42.30;;;;;;5065746;28;20704;-55
2022/04/15 03:06:29;;;;;;;2.00;1.90;;;18.70;42.50;;;;;;5057652;28;20233;-56
2022/04/15 03:08:55;;;;;;;2.10;2.00;;;18.70;42.60;;;;;;5060396;28;20699;-56
2022/04/15 03:11:21;;;;;;;1.90;1.80;;;18.70;42.80;;;;;;5059762;28;20230;-56
2022/04/15 03:13:46;;;;;;;1.90;1.80;;;18.70;43.00;;;;;;5057017;28;20827;-56
2022/04/15 03:16:12;;;;;;;1.80;1.70;;;18.70;43.20;;;;;;5062003;28;20226;-55
2022/04/15 03:18:38;;;;;;;1.73;1.63;;;18.70;43.30;;;;;;5055589;28;20229;-56
2022/04/15 03:21:03;;;;;;;1.90;1.80;;;18.70;43.60;;;;;;5057634;28;20209;-56
2022/04/15 03:23:29;;;;;;;1.90;1.80;;;18.70;43.60;;;;;;5047899;28;20222;-55
2022/04/15 03:25:55;;;;;;;1.90;1.80;;;18.70;43.60;;;;;;5060428;28;20214;-56
2022/04/15 03:28:21;;;;;;;2.10;1.93;;;18.70;43.60;;;;;;5056486;28;20244;-56
2022/04/15 03:30:46;;;;;;;2.10;1.90;;;18.70;43.60;;;;;;5061771;28;20277;-56
2022/04/15 03:33:12;;;;;;;1.90;1.80;;;18.70;43.60;;;;;;5057696;28;20222;-56
2022/04/15 03:35:38;;;;;;;1.90;1.80;;;18.70;43.60;;;;;;5057637;28;20222;-56
2022/04/15 03:38:03;;;;;;;1.77;1.67;;;18.70;43.60;;;;;;5056985;28;20238;-56
2022/04/15 03:40:29;;;;;;;2.27;2.17;;;18.70;43.60;;;;;;5058129;28;20624;-56
2022/04/15 03:42:56;;;;;;;2.13;2.03;;;18.70;43.60;;;;;;5061630;28;20226;-56
2022/04/15 03:45:22;;;;;;;1.73;1.63;;;18.70;43.60;;;;;;5060021;28;20667;-56
2022/04/15 03:47:54;;;;;;;2.03;1.93;;;18.70;43.70;;;;;;5066099;28;20507;-56
2022/04/15 03:50:20;;;;;;;1.90;1.80;;;18.70;43.70;;;;;;5058277;28;20446;-56
2022/04/15 03:52:47;;;;;;;2.10;2.00;;;18.70;43.80;;;;;;5066004;28;20413;-56
2022/04/15 03:55:24;;;;;;;1.70;1.60;;;18.70;43.90;;;;;;5063365;28;20795;-56
2022/04/15 03:57:50;;;;;;;1.83;1.73;;;18.70;43.90;;;;;;5057685;28;20437;-55
2022/04/15 04:00:18;;;;;;;2.00;1.90;;;18.70;44.00;;;;;;5062773;28;20430;-55
2022/04/15 04:02:49;;;;;;;1.83;1.73;;;18.70;44.00;;;;;;5064663;28;20442;-55
2022/04/15 04:05:15;;;;;;;2.20;2.00;;;18.70;44.10;;;;;;5061871;28;20968;-55
2022/04/15 04:07:44;;;;;;;2.13;2.03;;;18.70;44.20;;;;;;5061651;28;20467;-56
2022/04/15 04:10:14;;;;;;;2.27;2.17;;;18.60;44.10;;;;;;5061552;28;20418;-56
2022/04/15 04:12:40;;;;;;;2.07;1.97;;;18.60;44.20;;;;;;5060147;28;20887;-56
2022/04/15 04:15:07;;;;;;;2.40;2.30;;;18.60;44.20;;;;;;5063804;28;20426;-56
2022/04/15 04:17:33;;;;;;;1.80;1.70;;;18.60;44.30;;;;;;5064466;28;20449;-55
2022/04/15 04:19:59;;;;;;;1.73;1.63;;;18.70;44.30;;;;;;5068469;28;20425;-55
2022/04/15 04:22:32;;;;;;;1.97;1.87;;;18.60;44.30;;;;;;5062885;28;20277;-56
2022/04/15 04:24:58;;;;;;;1.97;1.87;;;18.60;44.30;;;;;;5064472;28;20454;-56
2022/04/15 04:27:24;;;;;;;2.13;2.03;;;18.60;44.30;;;;;;5061460;28;20425;-56
2022/04/15 04:29:49;;;;;;;1.90;1.80;;;18.60;44.30;;;;;;5006910;28;20275;-56
2022/04/15 04:32:16;;;;;;;1.87;1.77;;;18.60;44.30;;;;;;5064345;28;20446;-55
2022/04/15 04:34:42;;;;;;;2.00;1.90;;;18.60;44.30;;;;;;5061088;28;20236;-56
2022/04/15 04:37:07;;;;;;;2.00;1.90;;;18.60;44.30;;;;;;5064129;28;20430;-57
2022/04/15 04:39:33;;;;;;;2.10;2.00;;;18.60;44.40;;;;;;5064512;28;20310;-56
2022/04/15 04:42:00;;;;;;;2.13;2.03;;;18.60;44.50;;;;;;5056641;28;20591;-56
2022/04/15 04:44:27;;;;;;;2.20;2.10;;;18.60;44.50;;;;;;5062212;28;20289;-56
2022/04/15 04:46:53;;;;;;;1.70;1.60;;;18.60;44.50;;;;;;5061939;28;20459;-55
2022/04/15 04:49:19;;;;;;;2.07;1.97;;;18.60;44.50;;;;;;5059554;28;20466;-56
2022/04/15 04:51:45;;;;;;;1.93;1.83;;;18.60;44.50;;;;;;5056394;28;20222;-55
2022/04/15 04:54:11;;;;;;;1.77;1.67;;;18.60;44.50;;;;;;5062533;28;20214;-55
2022/04/15 04:56:36;;;;;;;1.90;1.80;;;18.60;44.50;;;;;;5064325;28;20343;-56
2022/04/15 04:59:02;;;;;;;1.60;1.50;;;18.60;44.50;;;;;;5065071;28;21299;-56
2022/04/15 05:01:28;;;;;;;2.10;2.00;;;18.60;44.60;;;;;;5065724;28;20275;-56
2022/04/15 05:03:54;;;;;;;1.87;1.77;;;18.60;44.50;;;;;;5062393;28;20459;-56
2022/04/15 05:06:19;;;;;;;1.80;1.70;;;18.60;44.50;;;;;;5059240;28;20312;-56
2022/04/15 05:08:45;;;;;;;1.87;1.77;;;18.70;44.60;;;;;;5062579;28;20320;-55
2022/04/15 05:11:10;;;;;;;2.00;1.90;;;18.70;44.60;;;;;;5057387;28;20233;-55
2022/04/15 05:13:36;;;;;;;1.83;1.73;;;18.70;44.60;;;;;;5062975;28;20233;-55
2022/04/15 05:16:01;;;;;;;1.80;1.70;;;18.70;44.60;;;;;;5066375;28;20218;-55
2022/04/15 05:18:27;;;;;;;1.93;1.83;;;18.70;44.60;;;;;;5061561;28;20225;-56
2022/04/15 05:20:52;;;;;;;2.00;1.90;;;18.70;44.50;;;;;;5062226;28;20271;-55
2022/04/15 05:23:19;;;;;;;1.70;1.60;;;18.70;44.50;;;;;;5061866;28;20332;-56
2022/04/15 05:25:45;;;;;;;1.73;1.63;;;18.70;44.40;;;;;;5059047;28;20213;-56
2022/04/15 05:28:11;;;;;;;1.87;1.77;;;18.70;44.50;;;;;;5059888;28;20922;-56
2022/04/15 05:30:36;;;;;;;1.73;1.63;;;18.70;44.40;;;;;;5063420;28;20225;-58
2022/04/15 05:33:03;;;;;;;1.97;1.87;;;18.70;44.40;;;;;;5061500;28;20218;-55
2022/04/15 05:35:28;;;;;;;1.83;1.73;;;18.70;44.40;;;;;;5063248;28;20698;-55
2022/04/15 05:37:54;;;;;;;1.73;1.63;;;18.70;44.30;;;;;;5060821;28;20450;-56
2022/04/15 05:40:19;;;;;;;2.27;2.17;;;18.70;44.30;;;;;;5062821;28;20226;-56
2022/04/15 05:42:45;;;;;;;1.70;1.60;;;18.80;44.40;;;;;;5059190;28;20236;-55
2022/04/15 05:45:10;;;;;;;2.10;2.00;;;18.80;44.40;;;;;;5063628;28;20223;-56
2022/04/15 05:47:37;;;;;;;1.90;1.80;;;18.80;44.40;;;;;;5060555;28;20262;-56
2022/04/15 05:50:03;;;;;;;1.60;1.50;;;18.70;44.20;;;;;;5061426;28;20728;-55
2022/04/15 05:52:28;;;;;;;1.70;1.60;;;18.70;44.20;;;;;;5064471;28;20455;-55
2022/04/15 05:54:54;;;;;;;1.77;1.67;;;18.80;44.30;;;;;;5062996;28;20593;-55
2022/04/15 05:57:19;;;;;;;2.70;1.83;;;18.80;44.30;;;;;;5041650;28;20294;-54
2022/04/15 05:59:45;;;;;;;1.70;1.60;;;18.80;44.30;;;;;;5063236;28;20304;-54
2022/04/15 06:02:11;;;;;;;1.40;1.30;;;18.80;44.30;;;;;;5061988;28;20222;-54
2022/04/15 06:04:36;;;;;;;1.90;1.80;;;18.80;44.30;;;;;;5057151;28;20358;-54
2022/04/15 06:07:02;;;;;;;2.07;1.97;;;18.80;44.20;;;;;;5060883;28;20233;-55
2022/04/15 06:09:28;;;;;;;1.93;1.80;;;18.80;44.10;;;;;;5056303;28;20310;-55
2022/04/15 06:11:55;;;;;;;1.73;1.63;;;18.90;44.10;;;;;;5062638;28;20501;-56
2022/04/15 06:14:22;;;;;;;1.90;1.80;;;18.90;43.90;;;;;;5062031;28;20313;-55
2022/04/15 06:16:48;;;;;;;1.70;1.60;;;18.90;43.80;;;;;;5062658;28;20459;-56
2022/04/15 06:19:14;;;;;;;1.70;1.60;;;18.90;43.80;;;;;;5058471;28;20421;-54
2022/04/15 06:21:40;;;;;;;1.97;1.87;;;19.00;43.80;;;;;;5062066;28;20509;-56
2022/04/15 06:24:08;;;;;;;2.10;2.00;;;18.90;43.70;;;;;;5058591;28;20434;-55
2022/04/15 06:26:34;;;;;;;1.80;1.70;;;18.90;43.70;;;;;;5053433;28;20276;-55
2022/04/15 06:29:00;;;;;;;2.23;2.13;;;18.90;43.70;;;;;;5062910;28;20458;-55
2022/04/15 06:31:26;;;;;;;1.80;1.70;;;18.90;43.70;;;;;;5064376;28;20463;-56
2022/04/15 06:33:52;;;;;;;2.73;2.53;;;18.90;43.70;;;;;;5062492;28;20221;-57
2022/04/15 06:36:21;;;;;;;3.80;2.47;;;18.90;43.80;;;;;;5060574;28;20687;-57
2022/04/15 06:38:47;;;;;;;3.37;2.50;;;18.90;43.80;;;;;;5063579;28;20478;-57
2022/04/15 06:41:13;;;;;;;3.03;2.77;;;18.90;43.90;;;;;;5061816;28;20485;-57
2022/04/15 06:43:39;;;;;;;3.57;3.37;;;18.90;43.90;;;;;;5062431;28;20225;-56
2022/04/15 06:46:05;;;;;;;3.20;3.00;;;18.90;44.10;;;;;;5060575;28;20229;-57
2022/04/15 06:48:31;;;;;;;3.70;3.40;;;18.90;44.00;;;;;;5059356;28;20426;-56
2022/04/15 06:50:56;;;;;;;4.40;4.10;;;18.90;44.00;;;;;;5061655;28;20871;-57
2022/04/15 06:53:25;;;;;;;4.60;4.20;;;18.90;44.10;;;;;;5060102;28;20938;-56
2022/04/15 06:55:51;;;;;;;4.33;4.03;;;18.90;44.10;;;;;;5061485;28;20237;-56
2022/04/15 06:58:17;;;;;;;5.50;5.10;;;18.90;44.10;;;;;;5063957;28;20495;-56
2022/04/15 07:00:43;;;;;;;4.90;4.50;;;18.90;44.10;;;;;;5059220;28;20460;-58
2022/04/15 07:03:10;;;;;;;4.60;4.30;;;18.90;44.10;;;;;;5054768;28;20226;-56
2022/04/15 07:05:36;;;;;;;6.60;4.73;;;18.90;44.10;;;;;;5060844;28;20865;-56
2022/04/15 07:08:02;;;;;;;5.27;4.80;;;18.90;44.10;;;;;;5062374;28;20479;-56
2022/04/15 07:10:28;;;;;;;5.83;5.40;;;18.90;44.00;;;;;;5059102;28;20467;-56
2022/04/15 07:12:53;;;;;;;6.47;5.80;;;18.90;44.20;;;;;;5060658;28;20218;-56
2022/04/15 07:15:20;;;;;;;12.13;6.17;;;18.90;44.10;;;;;;5062003;28;20246;-56
2022/04/15 07:17:46;;;;;;;6.30;5.70;;;18.90;44.10;;;;;;5061576;28;20232;-56
2022/04/15 07:20:11;;;;;;;6.67;6.07;;;18.90;44.20;;;;;;5060882;28;20443;-56
2022/04/15 07:22:37;;;;;;;6.30;5.80;;;18.90;44.20;;;;;;5067421;28;20591;-58
2022/04/15 07:25:03;;;;;;;6.53;5.77;;;18.90;44.20;;;;;;5060632;28;20229;-54
2022/04/15 07:27:29;;;;;;;7.33;6.63;;;18.90;44.20;;;;;;5071360;28;20221;-55
2022/04/15 07:29:54;;;;;;;7.63;6.93;;;18.90;44.30;;;;;;5071108;28;20429;-55
2022/04/15 07:32:23;;;;;;;8.00;7.20;;;18.90;44.20;;;;;;5066945;28;20692;-55
2022/04/15 07:34:50;;;;;;;6.53;5.93;;;18.90;44.30;;;;;;5063566;28;20229;-54
2022/04/15 07:37:16;;;;;;;6.23;5.73;;;18.80;44.20;;;;;;5065374;28;20967;-54
2022/04/15 07:39:42;;;;;;;7.93;6.50;;;18.90;44.30;;;;;;5064651;28;20425;-54
2022/04/15 07:42:07;;;;;;;7.40;6.67;;;18.90;44.30;;;;;;5061687;28;20454;-53
2022/04/15 07:44:33;;;;;;;7.90;7.20;;;18.90;44.20;;;;;;5066296;28;20582;-53
2022/04/15 07:46:59;;;;;;;8.47;7.47;;;18.90;44.20;;;;;;5060180;28;20214;-54
2022/04/15 07:49:24;;;;;;;8.80;7.40;;;18.90;44.30;;;;;;5063937;28;20214;-53
2022/04/15 07:51:50;;;;;;;8.33;6.53;;;18.90;44.30;;;;;;5067345;28;20881;-55
2022/04/15 07:54:16;;;;;;;9.87;7.60;;;18.90;44.30;;;;;;5068019;28;20217;-54
2022/04/15 07:56:42;;;;;;;8.30;7.30;;;18.90;44.30;;;;;;5068012;28;20858;-55
2022/04/15 07:59:07;;;;;;;11.37;7.83;;;18.90;44.30;;;;;;5066704;28;20985;-53
2022/04/15 08:01:33;;;;;;;8.40;7.60;;;18.90;44.30;;;;;;5064745;28;20308;-54
2022/04/15 08:04:00;;;;;;;7.40;6.70;;;18.90;44.30;;;;;;5071013;28;20316;-54
2022/04/15 08:06:28;;;;;;;7.87;7.13;;;18.90;44.30;;;;;;5067504;28;20746;-54
2022/04/15 08:08:55;;;;;;;8.00;6.87;;;18.90;44.30;;;;;;5068376;28;20441;-53
2022/04/15 08:11:25;;;;;;;9.77;8.87;;;18.90;44.30;;;;;;5063830;28;20418;-54
2022/04/15 08:13:51;;;;;;;7.73;7.07;;;18.90;44.30;;;;;;5063320;28;20452;-55
2022/04/15 08:16:17;;;;;;;14.20;10.70;;;18.90;44.20;;;;;;5061360;28;20484;-54
2022/04/15 08:18:43;;;;;;;8.37;7.57;;;18.90;43.90;;;;;;5062077;28;20447;-55
2022/04/15 08:21:09;;;;;;;9.00;8.10;;;18.90;43.80;;;;;;5069317;28;20446;-54
2022/04/15 08:23:35;;;;;;;7.20;6.50;;;18.90;43.80;;;;;;5066081;28;20429;-54
2022/04/15 08:26:01;;;;;;;10.93;9.37;;;18.90;43.80;;;;;;5066666;28;20243;-55
2022/04/15 08:28:26;;;;;;;17.90;14.67;;;18.90;43.80;;;;;;5067434;28;20428;-56
2022/04/15 08:30:52;;;;;;;9.17;8.27;;;18.90;43.80;;;;;;5062085;28;20273;-56
2022/04/15 08:33:17;;;;;;;9.10;7.73;;;18.90;43.70;;;;;;5055816;28;20226;-56
2022/04/15 08:35:43;;;;;;;9.93;8.77;;;19.00;43.80;;;;;;5060063;28;20221;-54
2022/04/15 08:38:09;;;;;;;8.43;7.53;;;18.90;43.70;;;;;;5061736;28;20245;-54
2022/04/15 08:40:36;;;;;;;9.47;8.47;;;18.90;43.70;;;;;;5058625;28;20276;-55
2022/04/15 08:43:07;;;;;;;8.90;8.00;;;18.90;43.70;;;;;;5061931;28;20276;-54
2022/04/15 08:45:34;;;;;;;8.20;7.50;;;18.90;43.70;;;;;;5067375;28;20457;-55
2022/04/15 08:48:01;;;;;;;10.20;8.80;;;18.90;43.70;;;;;;5060855;28;20520;-56
2022/04/15 08:50:29;;;;;;;15.17;12.37;;;18.90;43.70;;;;;;5060862;28;20793;-55
2022/04/15 08:52:56;;;;;;;12.77;11.47;;;18.90;43.70;;;;;;5060730;28;20457;-55
2022/04/15 08:55:22;;;;;;;14.63;13.13;;;18.90;43.70;;;;;;5056971;28;20465;-55
2022/04/15 08:57:51;;;;;;;14.70;12.63;;;18.90;43.70;;;;;;5066822;28;20437;-55
2022/04/15 09:00:19;;;;;;;13.57;12.27;;;18.90;43.70;;;;;;5059114;28;20418;-55
2022/04/15 09:02:45;;;;;;;12.33;11.13;;;18.90;43.10;;;;;;5059742;28;20494;-55
2022/04/15 09:05:12;;;;;;;9.80;8.90;;;18.90;43.00;;;;;;5059544;28;20929;-53
2022/04/15 09:07:38;;;;;;;9.33;8.57;;;18.90;43.00;;;;;;5064028;28;20520;-56
2022/04/15 09:10:09;;;;;;;9.47;8.57;;;18.90;43.10;;;;;;5058304;28;20484;-55
2022/04/15 09:12:36;;;;;;;11.40;10.37;;;18.90;43.20;;;;;;5045660;28;20452;-56
2022/04/15 09:15:11;;;;;;;10.10;9.20;;;18.90;43.30;;;;;;5063444;28;20444;-55
2022/04/15 09:17:43;;;;;;;9.10;8.30;;;18.90;43.50;;;;;;5058639;28;20440;-55
2022/04/15 09:20:11;;;;;;;10.50;9.50;;;18.90;43.70;;;;;;5064458;28;20449;-56
2022/04/15 09:22:37;;;;;;;8.97;8.17;;;18.90;43.70;;;;;;5062174;28;20411;-55
2022/04/15 09:25:03;;;;;;;9.33;8.53;;;18.90;43.70;;;;;;5061990;28;20435;-56
2022/04/15 09:27:29;;;;;;;10.77;9.77;;;18.90;43.70;;;;;;5060739;28;20223;-55
2022/04/15 09:29:55;;;;;;;9.80;8.90;;;18.90;43.70;;;;;;5060770;28;20440;-55
2022/04/15 09:32:22;;;;;;;9.40;8.50;;;18.90;43.70;;;;;;5043469;28;20711;-55
2022/04/15 09:34:54;;;;;;;10.00;9.00;;;18.90;43.70;;;;;;5061942;28;21296;-55
2022/04/15 09:37:21;;;;;;;10.87;9.20;;;18.90;43.70;;;;;;5057259;28;20803;-55
2022/04/15 09:40:08;;;;;;;9.40;8.70;;;18.90;43.70;;;;;;5058696;28;20480;-55
2022/04/15 09:42:36;;;;;;;11.60;9.30;;;18.90;43.70;;;;;;5063034;28;20451;-55
2022/04/15 09:45:13;;;;;;;9.87;8.97;;;18.90;43.70;;;;;;5064141;28;20451;-55
2022/04/15 09:47:39;;;;;;;10.40;9.40;;;18.90;43.70;;;;;;5062560;28;20498;-54
2022/04/15 09:50:07;;;;;;;9.70;8.90;;;18.90;43.70;;;;;;5058269;28;20941;-55
2022/04/15 09:52:32;;;;;;;13.00;9.97;;;18.80;43.60;;;;;;5066002;28;20486;-55
2022/04/15 09:55:00;;;;;;;9.07;8.37;;;18.80;43.60;;;;;;5056875;28;20418;-55
2022/04/15 09:57:33;;;;;;;9.70;8.70;;;18.80;43.70;;;;;;5060089;28;20572;-55
2022/04/15 10:00:03;;;;;;;8.90;8.10;;;18.80;43.70;;;;;;5060613;28;20418;-55
2022/04/15 10:02:35;;;;;;;9.20;8.33;;;18.80;43.90;;;;;;5065141;28;20785;-55
2022/04/15 10:05:02;;;;;;;10.17;9.00;;;18.80;43.90;;;;;;5061933;28;20456;-55
2022/04/15 10:07:30;;;;;;;9.87;8.97;;;18.80;44.00;;;;;;5059336;28;20512;-55
2022/04/15 10:09:57;;;;;;;8.60;8.00;;;18.80;44.00;;;;;;5056492;28;20919;-55
2022/04/15 10:12:23;;;;;;;10.20;9.30;;;18.80;44.10;;;;;;5057871;28;20442;-55
2022/04/15 10:14:51;;;;;;;9.10;8.30;;;18.80;44.10;;;;;;5062317;28;21212;-55
2022/04/15 10:17:19;;;;;;;9.37;8.57;;;18.80;44.20;;;;;;5057090;28;20983;-55
2022/04/15 10:19:45;;;;;;;8.47;7.87;;;18.80;44.20;;;;;;5061827;28;20457;-55
2022/04/15 10:22:12;;;;;;;10.23;9.40;;;18.80;44.20;;;;;;5061263;28;21392;-54
2022/04/15 10:24:37;;;;;;;9.57;8.37;;;18.80;44.10;;;;;;5057590;28;20833;-54
2022/04/15 10:27:04;;;;;;;9.27;8.47;;;18.80;44.20;;;;;;5059601;28;20526;-55
2022/04/15 10:29:30;;;;;;;9.30;8.40;;;18.80;44.20;;;;;;5059535;28;20249;-56
2022/04/15 10:31:56;;;;;;;9.23;8.33;;;18.80;44.20;;;;;;5056496;28;20474;-55
2022/04/15 10:34:22;;;;;;;8.90;8.17;;;18.80;44.20;;;;;;5063953;28;20224;-55
2022/04/15 10:36:53;;;;;;;8.33;7.53;;;18.80;44.30;;;;;;5059479;28;20433;-56
2022/04/15 10:39:24;;;;;;;8.33;7.73;;;18.70;44.20;;;;;;5062264;28;20494;-55
2022/04/15 10:42:05;;;;;;;8.43;7.77;;;18.70;44.20;;;;;;5059453;28;20447;-55
2022/04/15 10:44:39;;;;;;;8.93;8.23;;;18.70;44.30;;;;;;5059591;28;20551;-56
2022/04/15 10:47:12;;;;;;;8.70;8.00;;;18.70;44.30;;;;;;5058151;28;20974;-55
2022/04/15 10:49:56;;;;;;;8.53;7.80;;;18.70;44.30;;;;;;5060286;28;20432;-55
2022/04/15 10:52:25;;;;;;;9.57;7.30;;;18.70;44.30;;;;;;5058457;28;20560;-55
2022/04/15 10:54:58;;;;;;;8.40;7.70;;;18.70;44.30;;;;;;5056615;28;20780;-55
2022/04/15 10:57:35;;;;;;;7.63;7.03;;;18.70;44.40;;;;;;5060152;28;20472;-55
2022/04/15 11:02:51;;;;;;;8.73;8.00;;;18.70;44.40;;;;;;5059839;28;20447;-55
2022/04/15 11:05:51;;;;;;;8.40;7.60;;;18.70;44.60;;;;;;5060635;28;20954;-56
2022/04/15 11:08:19;;;;;;;8.73;7.13;;;18.70;44.40;;;;;;5057104;28;21122;-55
2022/04/15 11:11:07;;;;;;;7.53;6.93;;;18.70;44.50;;;;;;5059627;28;20417;-55
2022/04/15 11:13:39;;;;;;;8.47;7.87;;;18.70;44.50;;;;;;5056665;28;20479;-55
2022/04/15 11:18:53;;;;;;;8.20;7.50;;;18.70;44.50;;;;;;5061399;28;20491;-55
2022/04/15 11:21:23;;;;;;;7.40;6.90;;;18.70;44.50;;;;;;5057344;28;20444;-55
2022/04/15 11:23:54;;;;;;;7.80;7.20;;;18.70;44.50;;;;;;5055516;28;20434;-54
2022/04/15 11:26:24;;;;;;;8.10;7.50;;;18.70;44.60;;;;;;5058230;28;20425;-55
2022/04/15 11:28:51;;;;;;;8.83;8.13;;;18.70;44.50;;;;;;5058541;28;20456;-56
2022/04/15 11:31:20;;;;;;;8.53;7.90;;;18.70;44.60;;;;;;5051324;28;20517;-56
2022/04/15 11:33:45;;;;;;;7.40;6.90;;;18.70;44.50;;;;;;5059994;28;20425;-55
2022/04/15 11:36:11;;;;;;;8.00;7.40;;;18.70;44.50;;;;;;5065401;28;20439;-55
2022/04/15 11:38:37;;;;;;;8.20;7.50;;;18.70;44.50;;;;;;5060076;28;20242;-54
2022/04/15 11:41:02;;;;;;;8.37;7.73;;;18.70;44.50;;;;;;5061515;28;20729;-55
2022/04/15 11:43:28;;;;;;;7.03;6.60;;;18.70;44.60;;;;;;5060720;28;20225;-54
2022/04/15 11:45:53;;;;;;;7.50;6.90;;;18.70;44.60;;;;;;5055427;28;20221;-54
2022/04/15 11:48:20;;;;;;;7.23;6.73;;;18.70;44.60;;;;;;5061856;28;20233;-55
2022/04/15 11:50:48;;;;;;;7.43;7.00;;;18.70;44.60;;;;;;5058754;28;20228;-54
2022/04/15 11:53:15;;;;;;;7.87;7.30;;;18.70;44.60;;;;;;5057066;28;20443;-54
2022/04/15 11:55:51;;;;;;;8.10;7.50;;;18.70;44.60;;;;;;5061800;28;20454;-54
2022/04/15 11:58:17;;;;;;;7.10;6.60;;;18.70;44.60;;;;;;5061004;28;20883;-55
2022/04/15 12:00:49;;;;;;;8.13;7.50;;;18.70;44.60;;;;;;5057805;28;20442;-55
2022/04/15 12:03:15;;;;;;;8.13;7.53;;;18.70;44.60;;;;;;5057801;28;20526;-55
2022/04/15 12:05:40;;;;;;;9.97;7.57;;;18.70;44.70;;;;;;5062412;28;20417;-55
2022/04/15 12:08:08;;;;;;;7.00;6.50;;;18.70;44.70;;;;;;5053661;28;20273;-55
2022/04/15 12:10:38;;;;;;;7.37;6.87;;;18.70;44.60;;;;;;5063781;28;20304;-54
2022/04/15 12:13:05;;;;;;;8.37;7.73;;;18.70;44.70;;;;;;5062395;28;20433;-55
2022/04/15 12:15:32;;;;;;;7.27;6.83;;;18.70;44.60;;;;;;5065583;28;20426;-55
2022/04/15 12:17:58;;;;;;;8.00;7.50;;;18.70;44.70;;;;;;5063498;28;20482;-55
2022/04/15 12:20:24;;;;;;;7.60;7.10;;;18.70;44.70;;;;;;5067520;28;20492;-55
2022/04/15 12:22:50;;;;;;;7.83;7.33;;;18.70;44.70;;;;;;5056552;28;20218;-55
2022/04/15 12:25:17;;;;;;;7.00;6.50;;;18.70;44.70;;;;;;5060872;28;20669;-55
2022/04/15 12:27:45;;;;;;;7.57;7.03;;;18.70;44.70;;;;;;5063510;28;20326;-54
2022/04/15 12:30:11;;;;;;;7.23;6.83;;;18.70;44.70;;;;;;5057970;28;20456;-54
2022/04/15 12:32:38;;;;;;;7.90;7.30;;;18.60;44.60;;;;;;5065978;28;20424;-54
2022/04/15 12:35:12;;;;;;;7.77;7.20;;;18.70;44.70;;;;;;5063766;28;20499;-55
2022/04/15 12:37:47;;;;;;;7.60;7.10;;;18.70;44.70;;;;;;5060154;28;20451;-55
2022/04/15 12:40:19;;;;;;;8.27;7.67;;;18.70;44.70;;;;;;5061403;28;20446;-54
2022/04/15 12:42:46;;;;;;;8.67;8.07;;;18.70;44.80;;;;;;5066049;28;20506;-56
2022/04/15 12:45:16;;;;;;;7.60;7.03;;;18.70;44.80;;;;;;5060973;28;20422;-54
2022/04/15 12:47:43;;;;;;;8.33;7.63;;;18.60;44.70;;;;;;5067534;28;20425;-55
2022/04/15 12:50:25;;;;;;;7.50;7.00;;;18.60;44.70;;;;;;5063232;28;20426;-55